createdAt,value
2023-04-27T00:02:20.110Z,108.84
2023-04-27T00:05:26.797Z,117.22
2023-04-27T00:08:36.160Z,115.73
2023-04-27T00:11:42.183Z,114.54
2023-04-27T00:14:48.851Z,119.44
2023-04-27T00:17:55.019Z,121.29
2023-04-27T00:21:02.545Z,118.40
2023-04-27T00:24:11.800Z,113.12
2023-04-27T00:27:18.637Z,107.02
2023-04-27T00:30:24.639Z,108.35
2023-04-27T00:33:33.519Z,105.16
2023-04-27T00:36:39.464Z,108.54
2023-04-27T00:39:48.762Z,105.65
2023-04-27T00:42:54.602Z,107.50
2023-04-27T00:46:02.423Z,108.54
2023-04-27T00:49:08.280Z,111.60
2023-04-27T00:52:14.956Z,111.14
2023-04-27T00:55:24.247Z,110.04
2023-04-27T00:58:30.899Z,113.91
2023-04-27T01:01:37.778Z,110.46
2023-04-27T01:04:44.751Z,114.82
2023-04-27T01:07:51.563Z,122.17
2023-04-27T01:11:02.290Z,128.40
2023-04-27T01:14:10.039Z,124.14
2023-04-27T01:17:18.448Z,119.39
2023-04-27T01:20:24.286Z,118.20
2023-04-27T01:23:33.209Z,120.68
2023-04-27T01:26:38.838Z,122.65
2023-04-27T01:29:45.162Z,119.40
2023-04-27T01:32:50.957Z,118.25
2023-04-27T01:35:58.884Z,122.88
2023-04-27T01:39:10.262Z,117.86
2023-04-27T01:42:17.330Z,114.14
2023-04-27T01:45:22.982Z,115.85
2023-04-27T01:48:29.370Z,119.60
2023-04-27T01:51:35.871Z,122.14
2023-04-27T01:54:44.901Z,122.13
2023-04-27T01:57:50.612Z,125.02
2023-04-27T02:00:57.193Z,118.68
2023-04-27T02:04:03.024Z,118.50
2023-04-27T02:07:09.757Z,112.96
2023-04-27T02:10:17.973Z,117.11
2023-04-27T02:13:24.867Z,113.26
2023-04-27T02:16:30.556Z,114.74
2023-04-27T02:19:37.202Z,117.06
2023-04-27T02:22:46.159Z,120.80
2023-04-27T02:25:55.150Z,120.60
2023-04-27T02:29:00.862Z,117.22
2023-04-27T02:32:08.639Z,117.15
2023-04-27T02:35:14.517Z,116.10
2023-04-27T02:38:20.968Z,114.41
2023-04-27T02:41:29.962Z,115.01
2023-04-27T02:44:36.512Z,115.70
2023-04-27T02:47:42.236Z,113.17
2023-04-27T02:50:49.289Z,110.89
2023-04-27T02:53:56.844Z,111.94
2023-04-27T02:57:05.896Z,109.72
2023-04-27T03:00:13.747Z,110.84
2023-04-27T03:03:20.317Z,110.54
2023-04-27T03:06:26.310Z,113.23
2023-04-27T03:09:34.450Z,112.69
2023-04-27T03:12:42.793Z,114.03
2023-04-27T03:15:49.420Z,120.26
2023-04-27T03:18:55.083Z,114.88
2023-04-27T03:22:01.559Z,114.55
2023-04-27T03:25:08.789Z,116.25
2023-04-27T03:28:20.714Z,114.99
2023-04-27T03:31:27.270Z,116.60
2023-04-27T03:34:37.090Z,124.00
2023-04-27T03:37:42.593Z,121.06
2023-04-27T03:40:48.946Z,125.36
2023-04-27T03:43:57.211Z,132.06
2023-04-27T03:47:04.144Z,127.72
2023-04-27T03:50:10.716Z,133.96
2023-04-27T03:53:18.039Z,140.86
2023-04-27T03:56:25.120Z,150.46
2023-04-27T03:59:34.966Z,155.96
2023-04-27T04:02:42.568Z,152.31
2023-04-27T04:05:49.614Z,137.40
2023-04-27T04:08:55.791Z,137.07
2023-04-27T04:12:02.433Z,136.27
2023-04-27T04:15:11.975Z,139.17
2023-04-27T04:18:18.442Z,146.24
2023-04-27T04:21:24.155Z,143.29
2023-04-27T04:24:30.556Z,140.73
2023-04-27T04:27:37.700Z,136.33
2023-04-27T04:30:47.047Z,135.52
2023-04-27T04:33:52.755Z,131.88
2023-04-27T04:37:00.328Z,129.52
2023-04-27T04:40:11.301Z,138.55
2023-04-27T04:43:18.426Z,138.17
2023-04-27T04:46:30.942Z,159.75
2023-04-27T04:49:37.407Z,167.09
2023-04-27T04:52:44.274Z,157.58
2023-04-27T04:55:50.890Z,149.48
2023-04-27T04:58:56.658Z,141.12
2023-04-27T05:02:06.759Z,145.35
2023-04-27T05:05:13.334Z,140.43
2023-04-27T05:08:19.707Z,138.47
2023-04-27T05:11:25.434Z,131.80
2023-04-27T05:14:31.877Z,132.49
2023-04-27T05:17:40.145Z,132.78
2023-04-27T05:20:46.522Z,139.33
2023-04-27T05:23:52.237Z,138.39
2023-04-27T05:27:00.739Z,138.49
2023-04-27T05:30:09.079Z,140.14
2023-04-27T05:33:18.021Z,135.39
2023-04-27T05:36:23.671Z,126.69
2023-04-27T05:39:30.124Z,122.21
2023-04-27T05:42:35.852Z,119.67
2023-04-27T05:45:43.655Z,109.21
2023-04-27T05:48:52.035Z,113.19
2023-04-27T05:51:59.267Z,111.23
2023-04-27T05:55:04.910Z,102.93
2023-04-27T05:58:11.523Z,104.56
2023-04-27T06:01:17.253Z,105.29
2023-04-27T06:04:26.293Z,107.08
2023-04-27T06:07:32.085Z,109.03
2023-04-27T06:10:38.783Z,109.41
2023-04-27T06:13:44.496Z,108.21
2023-04-27T06:16:50.884Z,111.03
2023-04-27T06:19:59.216Z,112.78
2023-04-27T06:23:05.916Z,113.67
2023-04-27T06:26:11.710Z,118.19
2023-04-27T06:29:18.357Z,118.12
2023-04-27T06:32:24.206Z,116.00
2023-04-27T06:35:33.766Z,110.82
2023-04-27T06:38:39.579Z,117.16
2023-04-27T06:41:45.981Z,114.25
2023-04-27T06:44:58.712Z,104.98
2023-04-27T06:48:05.743Z,100.98
2023-04-27T06:51:14.412Z,97.18
2023-04-27T06:54:21.225Z,100.99
2023-04-27T06:57:27.010Z,101.01
2023-04-27T07:00:34.108Z,97.83
2023-04-27T07:03:39.936Z,100.22
2023-04-27T07:06:49.227Z,100.39
2023-04-27T07:09:55.867Z,100.18
2023-04-27T07:13:02.732Z,95.89
2023-04-27T07:16:09.912Z,99.07
2023-04-27T07:19:16.985Z,88.04
2023-04-27T07:22:25.344Z,77.80
2023-04-27T07:25:31.870Z,76.15
2023-04-27T07:28:38.494Z,69.00
2023-04-27T07:31:48.150Z,68.61
2023-04-27T07:34:54.649Z,73.62
2023-04-27T07:38:04.647Z,77.55
2023-04-27T07:41:10.323Z,78.76
2023-04-27T07:44:16.745Z,66.55
2023-04-27T07:47:22.528Z,65.87
2023-04-27T07:50:30.216Z,63.98
2023-04-27T07:53:41.057Z,63.71
2023-04-27T07:56:47.553Z,67.42
2023-04-27T07:59:53.266Z,60.64
2023-04-27T08:02:59.945Z,62.75
2023-04-27T08:06:05.959Z,67.53
2023-04-27T08:09:15.359Z,68.63
2023-04-27T08:12:21.345Z,70.93
2023-04-27T08:15:27.856Z,55.15
2023-04-27T08:18:33.548Z,58.23
2023-04-27T08:21:40.002Z,55.12
2023-04-27T08:24:48.401Z,48.76
2023-04-27T08:27:54.804Z,48.42
2023-04-27T08:31:00.452Z,47.40
2023-04-27T08:34:07.232Z,51.47
2023-04-27T08:37:12.972Z,61.96
2023-04-27T08:40:22.217Z,59.64
2023-04-27T08:43:27.786Z,83.48
2023-04-27T08:46:34.248Z,62.92
2023-04-27T08:49:41.794Z,58.48
2023-04-27T08:52:49.647Z,63.30
2023-04-27T08:55:58.298Z,57.76
2023-04-27T08:59:04.867Z,63.25
2023-04-27T09:02:21.000Z,61.38
2023-04-27T09:05:27.781Z,58.96
2023-04-27T09:08:43.915Z,56.52
2023-04-27T09:11:52.897Z,62.92
2023-04-27T09:15:03.966Z,55.64
2023-04-27T09:18:15.219Z,52.20
2023-04-27T09:21:28.015Z,46.94
2023-04-27T09:24:34.641Z,58.61
2023-04-27T09:27:47.916Z,54.11
2023-04-27T09:30:59.823Z,49.93
2023-04-27T09:34:06.628Z,53.83
2023-04-27T09:37:14.495Z,56.60
2023-04-27T09:40:24.976Z,51.04
2023-04-27T09:43:34.182Z,51.44
2023-04-27T09:46:40.815Z,47.89
2023-04-27T09:49:47.540Z,59.63
2023-04-27T09:52:53.641Z,81.98
2023-04-27T09:56:26.083Z,65.09
2023-04-27T10:00:11.313Z,52.53
2023-04-27T10:03:35.363Z,55.71
2023-04-27T10:07:02.160Z,54.74
2023-04-27T10:10:09.989Z,57.25
2023-04-27T10:13:28.098Z,67.06
2023-04-27T10:16:49.481Z,64.91
2023-04-27T10:20:04.099Z,71.60
2023-04-27T10:23:10.796Z,70.36
2023-04-27T10:26:26.457Z,73.09
2023-04-27T10:29:40.684Z,67.21
2023-04-27T10:32:58.727Z,72.74
2023-04-27T10:36:05.440Z,64.18
2023-04-27T10:39:29.809Z,63.99
2023-04-27T10:42:39.871Z,53.77
2023-04-27T10:45:47.735Z,54.01
2023-04-27T10:48:57.061Z,52.37
2023-04-27T10:52:05.183Z,52.02
2023-04-27T10:55:19.495Z,47.91
2023-04-27T10:58:37.812Z,51.42
2023-04-27T11:01:53.813Z,53.99
2023-04-27T11:05:07.714Z,50.00
2023-04-27T11:08:16.632Z,52.36
2023-04-27T11:11:23.015Z,53.89
2023-04-27T11:14:29.899Z,53.98
2023-04-27T11:17:35.717Z,54.07
2023-04-27T11:20:45.102Z,60.04
2023-04-27T11:23:50.957Z,57.20
2023-04-27T11:26:57.320Z,55.01
2023-04-27T11:30:02.971Z,57.67
2023-04-27T11:33:12.700Z,59.40
2023-04-27T11:36:27.477Z,58.85
2023-04-27T11:39:38.628Z,62.29
2023-04-27T11:42:47.299Z,63.33
2023-04-27T11:45:55.793Z,59.58
2023-04-27T11:49:07.226Z,61.21
2023-04-27T11:52:18.027Z,63.42
2023-04-27T11:55:27.085Z,68.12
2023-04-27T11:58:36.333Z,61.05
2023-04-27T12:01:42.029Z,63.42
2023-04-27T12:04:49.122Z,68.45
2023-04-27T12:07:58.540Z,62.01
2023-04-27T12:11:04.983Z,59.55
2023-04-27T12:14:10.636Z,56.71
2023-04-27T12:17:17.327Z,53.55
2023-04-27T12:20:23.143Z,52.25
2023-04-27T12:23:32.467Z,57.70
2023-04-27T12:26:38.882Z,52.02
2023-04-27T12:29:45.318Z,46.16
2023-04-27T12:32:51.375Z,56.39
2023-04-27T12:35:57.987Z,54.23
2023-04-27T12:39:18.941Z,53.60
2023-04-27T12:42:27.874Z,59.75
2023-04-27T12:45:34.115Z,85.40
2023-04-27T12:48:41.331Z,57.34
2023-04-27T12:51:48.176Z,77.08
2023-04-27T12:54:59.508Z,56.14
2023-04-27T12:58:06.616Z,56.27
2023-04-27T13:01:15.136Z,73.65
2023-04-27T13:04:23.773Z,59.44
2023-04-27T13:07:30.671Z,56.12
2023-04-27T13:10:39.286Z,65.50
2023-04-27T13:13:46.653Z,64.16
2023-04-27T13:16:52.405Z,64.02
2023-04-27T13:19:58.763Z,64.85
2023-04-27T13:23:06.137Z,59.32
2023-04-27T13:26:15.085Z,62.42
2023-04-27T13:29:21.102Z,58.61
2023-04-27T13:32:27.712Z,64.47
2023-04-27T13:35:33.311Z,57.15
2023-04-27T13:38:40.016Z,69.75
2023-04-27T13:41:48.344Z,58.93
2023-04-27T13:44:54.674Z,73.01
2023-04-27T13:48:00.271Z,67.51
2023-04-27T13:51:07.027Z,64.53
2023-04-27T13:54:12.851Z,79.94
2023-04-27T13:57:21.971Z,66.31
2023-04-27T14:00:30.861Z,68.76
2023-04-27T14:03:37.484Z,55.19
2023-04-27T14:06:43.205Z,61.72
2023-04-27T14:09:49.894Z,57.88
2023-04-27T14:12:59.524Z,72.57
2023-04-27T14:16:06.817Z,81.44
2023-04-27T14:19:15.777Z,81.66
2023-04-27T14:22:22.664Z,109.36
2023-04-27T14:25:32.783Z,92.66
2023-04-27T14:28:42.093Z,67.22
2023-04-27T14:31:49.530Z,63.99
2023-04-27T14:34:56.159Z,63.04
2023-04-27T14:38:02.651Z,55.17
2023-04-27T14:41:09.266Z,53.44
2023-04-27T14:44:17.614Z,51.97
2023-04-27T14:47:24.116Z,50.20
2023-04-27T14:50:31.453Z,52.94
2023-04-27T14:53:37.944Z,57.46
2023-04-27T14:56:43.695Z,62.82
2023-04-27T14:59:52.683Z,54.38
2023-04-27T15:02:58.345Z,55.06
2023-04-27T15:06:06.103Z,50.92
2023-04-27T15:09:12.143Z,70.26
2023-04-27T15:12:18.642Z,69.68
2023-04-27T15:15:26.757Z,56.76
2023-04-27T15:18:33.777Z,55.67
2023-04-27T15:21:39.412Z,52.39
2023-04-27T15:24:46.489Z,54.09
2023-04-27T15:27:52.505Z,63.04
2023-04-27T15:31:01.646Z,54.43
2023-04-27T15:34:07.352Z,51.85
2023-04-27T15:37:13.911Z,56.69
2023-04-27T15:40:20.358Z,56.70
2023-04-27T15:43:27.012Z,55.67
2023-04-27T15:46:35.309Z,117.72
2023-04-27T15:49:53.421Z,287.85
2023-04-27T15:53:02.381Z,207.33
2023-04-27T15:56:09.710Z,166.86
2023-04-27T15:59:15.708Z,432.90
2023-04-27T16:02:25.024Z,157.95
2023-04-27T16:05:31.452Z,199.83
2023-04-27T16:08:37.833Z,233.43
2023-04-27T16:11:43.681Z,173.01
2023-04-27T16:14:52.052Z,145.05
2023-04-27T16:18:00.271Z,722.00
2023-04-27T16:21:06.889Z,412.83
2023-04-27T16:24:12.688Z,132.33
2023-04-27T16:27:20.897Z,101.28
2023-04-27T16:30:26.823Z,108.19
2023-04-27T16:33:36.277Z,115.19
2023-04-27T16:36:42.081Z,92.50
2023-04-27T16:39:48.631Z,84.29
2023-04-27T16:42:54.221Z,91.41
2023-04-27T16:46:00.699Z,89.57
2023-04-27T16:49:09.315Z,84.13
2023-04-27T16:52:17.340Z,69.13
2023-04-27T16:55:23.506Z,72.02
2023-04-27T16:58:30.838Z,71.52
2023-04-27T17:01:37.138Z,81.94
2023-04-27T17:04:46.114Z,132.50
2023-04-27T17:07:51.855Z,147.06
2023-04-27T17:10:58.314Z,227.26
2023-04-27T17:14:03.880Z,143.03
2023-04-27T17:17:10.343Z,124.77
2023-04-27T17:20:19.290Z,125.48
2023-04-27T17:23:26.420Z,115.59
2023-04-27T17:26:34.149Z,113.17
2023-04-27T17:29:40.569Z,160.62
2023-04-27T17:32:46.331Z,121.10
2023-04-27T17:35:55.393Z,96.37
2023-04-27T17:39:04.613Z,133.13
2023-04-27T17:42:12.806Z,91.89
2023-04-27T17:45:18.879Z,109.81
2023-04-27T17:48:25.838Z,113.59
2023-04-27T17:51:36.289Z,122.90
2023-04-27T17:54:43.727Z,127.37
2023-04-27T17:57:49.641Z,129.81
2023-04-27T18:00:56.240Z,132.04
2023-04-27T18:04:04.233Z,141.18
2023-04-27T18:07:13.910Z,178.01
2023-04-27T18:10:19.628Z,182.90
2023-04-27T18:13:27.444Z,147.78
2023-04-27T18:16:33.297Z,159.84
2023-04-27T18:19:40.129Z,175.86
2023-04-27T18:22:48.554Z,168.00
2023-04-27T18:25:55.766Z,164.90
2023-04-27T18:29:01.726Z,182.37
2023-04-27T18:32:08.725Z,176.01
2023-04-27T18:35:14.464Z,164.14
2023-04-27T18:38:24.800Z,153.68
2023-04-27T18:41:31.077Z,164.59
2023-04-27T18:44:37.671Z,133.26
2023-04-27T18:47:43.361Z,175.10
2023-04-27T18:50:49.871Z,188.36
2023-04-27T18:53:58.239Z,151.31
2023-04-27T18:57:04.881Z,150.71
2023-04-27T19:00:13.236Z,140.42
2023-04-27T19:03:19.981Z,130.15
2023-04-27T19:06:26.711Z,140.54
2023-04-27T19:09:36.083Z,174.82
2023-04-27T19:12:41.896Z,145.78
2023-04-27T19:15:48.415Z,145.67
2023-04-27T19:18:54.241Z,143.31
2023-04-27T19:22:01.365Z,140.03
2023-04-27T19:25:12.266Z,126.61
2023-04-27T19:28:20.655Z,136.40
2023-04-27T19:31:27.211Z,141.80
2023-04-27T19:34:33.647Z,154.24
2023-04-27T19:37:39.361Z,161.88
2023-04-27T19:40:50.820Z,159.46
2023-04-27T19:43:56.560Z,170.35
2023-04-27T19:47:03.188Z,194.34
2023-04-27T19:50:10.427Z,210.13
2023-04-27T19:53:17.157Z,200.44
2023-04-27T19:56:25.429Z,205.38
2023-04-27T19:59:32.048Z,204.58
2023-04-27T20:02:38.148Z,211.40
2023-04-27T20:05:45.543Z,229.25
2023-04-27T20:08:51.908Z,219.19
2023-04-27T20:12:00.949Z,197.50
2023-04-27T20:15:08.359Z,164.91
2023-04-27T20:18:14.711Z,140.55
2023-04-27T20:21:21.724Z,139.07
2023-04-27T20:24:29.147Z,154.99
2023-04-27T20:27:37.657Z,169.67
2023-04-27T20:30:44.017Z,226.62
2023-04-27T20:33:49.845Z,212.05
2023-04-27T20:36:58.061Z,227.19
2023-04-27T20:40:05.019Z,278.93
2023-04-27T20:43:14.852Z,707.38
2023-04-27T20:46:20.797Z,330.88
2023-04-27T20:49:34.347Z,279.97
2023-04-27T20:52:40.489Z,287.11
2023-04-27T20:55:46.838Z,296.15
2023-04-27T20:58:55.195Z,250.57
2023-04-27T21:02:01.738Z,246.36
2023-04-27T21:05:08.234Z,231.61
2023-04-27T21:08:14.580Z,184.67
2023-04-27T21:11:20.325Z,180.28
2023-04-27T21:14:30.045Z,173.32
2023-04-27T21:17:36.077Z,173.28
2023-04-27T21:20:42.512Z,166.07
2023-04-27T21:23:49.867Z,169.12
2023-04-27T21:27:01.145Z,184.83
2023-04-27T21:30:11.897Z,193.78
2023-04-27T21:33:18.333Z,189.99
2023-04-27T21:36:23.978Z,192.05
2023-04-27T21:39:30.386Z,206.20
2023-04-27T21:42:36.431Z,217.84
2023-04-27T21:45:45.801Z,235.80
2023-04-27T21:48:51.706Z,227.27
2023-04-27T21:51:58.305Z,231.33
2023-04-27T21:55:05.245Z,221.11
2023-04-27T21:58:11.700Z,216.86
2023-04-27T22:01:19.876Z,211.34
2023-04-27T22:04:26.612Z,241.98
2023-04-27T22:07:32.858Z,239.59
2023-04-27T22:10:39.281Z,253.60
2023-04-27T22:13:45.014Z,250.81
2023-04-27T22:16:54.088Z,246.72
2023-04-27T22:20:01.517Z,248.46
2023-04-27T22:23:07.923Z,272.48
2023-04-27T22:26:13.634Z,377.37
2023-04-27T22:29:21.119Z,341.36
2023-04-27T22:32:29.860Z,286.59
2023-04-27T22:35:37.125Z,313.53
2023-04-27T22:38:42.855Z,347.00
2023-04-27T22:41:49.160Z,357.67
2023-04-27T22:44:54.905Z,352.63
2023-04-27T22:48:03.862Z,349.98
2023-04-27T22:51:12.283Z,335.35
2023-04-27T22:54:18.762Z,338.48
2023-04-27T22:57:24.525Z,345.82
2023-04-27T23:00:31.030Z,354.01
2023-04-27T23:03:39.531Z,353.04
2023-04-27T23:06:46.618Z,396.27
2023-04-27T23:09:53.100Z,395.69
2023-04-27T23:13:01.588Z,434.41
2023-04-27T23:16:10.281Z,466.03
2023-04-27T23:19:19.486Z,477.03
2023-04-27T23:22:25.080Z,467.99
2023-04-27T23:25:35.336Z,471.04
2023-04-27T23:28:41.169Z,462.74
2023-04-27T23:31:47.677Z,484.78
2023-04-27T23:34:59.280Z,520.05
2023-04-27T23:38:05.876Z,520.88
2023-04-27T23:41:11.493Z,546.28
2023-04-27T23:44:18.114Z,571.79
2023-04-27T23:47:23.762Z,565.04
2023-04-27T23:50:32.894Z,497.37
2023-04-27T23:53:38.526Z,489.51
2023-04-27T23:56:44.920Z,530.17
2023-04-27T23:59:50.518Z,561.76
